createdAt,value
2023-02-11T04:00:39.511Z,22.53
2023-02-11T04:03:07.956Z,21.23
2023-02-11T04:05:36.000Z,22.57
2023-02-11T04:08:04.307Z,21.73
2023-02-11T04:10:32.193Z,21.50
2023-02-11T04:13:00.140Z,22.27
2023-02-11T04:15:28.439Z,21.23
2023-02-11T04:17:57.632Z,21.60
2023-02-11T04:20:25.658Z,22.00
2023-02-11T04:22:53.481Z,21.80
2023-02-11T04:25:21.546Z,22.27
2023-02-11T04:27:49.368Z,20.90
2023-02-11T04:30:17.188Z,20.53
2023-02-11T04:32:45.054Z,20.87
2023-02-11T04:35:14.322Z,21.47
2023-02-11T04:37:42.211Z,21.13
2023-02-11T04:40:11.199Z,20.37
2023-02-11T04:42:39.368Z,20.57
2023-02-11T04:45:08.163Z,19.70
2023-02-11T04:47:37.607Z,20.30
2023-02-11T04:50:06.209Z,20.23
2023-02-11T04:52:35.452Z,20.50
2023-02-11T04:55:03.352Z,20.80
2023-02-11T04:57:31.180Z,21.40
2023-02-11T04:59:59.006Z,20.77
2023-02-11T05:02:26.872Z,21.07
2023-02-11T05:04:54.738Z,21.70
2023-02-11T05:07:22.613Z,20.30
2023-02-11T05:09:51.804Z,21.47
2023-02-11T05:12:19.693Z,21.63
2023-02-11T05:14:47.488Z,21.73
2023-02-11T05:17:15.388Z,20.73
2023-02-11T05:19:43.540Z,20.97
2023-02-11T05:22:11.423Z,21.20
2023-02-11T05:24:39.348Z,22.03
2023-02-11T05:27:08.548Z,20.60
2023-02-11T05:29:36.634Z,22.47
2023-02-11T05:32:04.700Z,21.27
2023-02-11T05:34:32.525Z,20.90
2023-02-11T05:37:00.505Z,21.87
2023-02-11T05:39:28.487Z,21.10
2023-02-11T05:41:56.353Z,21.03
2023-02-11T05:44:25.548Z,20.23
2023-02-11T05:46:53.374Z,20.20
2023-02-11T05:49:21.269Z,20.30
2023-02-11T05:51:49.113Z,20.00
2023-02-11T05:54:17.193Z,20.43
2023-02-11T05:56:45.141Z,19.30
2023-02-11T05:59:14.917Z,19.43
2023-02-11T06:01:44.130Z,21.60
2023-02-11T06:04:11.977Z,20.53
2023-02-11T06:06:39.930Z,21.97
2023-02-11T06:09:07.773Z,20.20
2023-02-11T06:11:35.672Z,20.37
2023-02-11T06:14:03.518Z,20.80
2023-02-11T06:16:31.418Z,20.37
2023-02-11T06:19:00.867Z,22.47
2023-02-11T06:21:42.494Z,21.33
2023-02-11T06:24:11.854Z,20.07
2023-02-11T06:26:39.700Z,19.77
2023-02-11T06:29:07.724Z,20.37
2023-02-11T06:31:38.476Z,19.83
2023-02-11T06:34:07.780Z,20.93
2023-02-11T06:36:36.130Z,20.57
2023-02-11T06:39:04.434Z,20.50
2023-02-11T06:41:32.573Z,21.30
2023-02-11T06:44:00.456Z,19.60
2023-02-11T06:46:28.372Z,19.97
2023-02-11T06:48:56.261Z,20.10
2023-02-11T06:51:25.537Z,19.53
2023-02-11T06:53:53.386Z,20.33
2023-02-11T06:56:23.328Z,20.27
2023-02-11T06:58:54.654Z,21.47
2023-02-11T07:01:22.966Z,22.43
2023-02-11T07:03:52.182Z,23.83
2023-02-11T07:06:22.126Z,21.53
2023-02-11T07:08:51.340Z,19.90
2023-02-11T07:11:24.114Z,20.40
2023-02-11T07:13:52.762Z,19.40
2023-02-11T07:16:20.857Z,19.23
2023-02-11T07:18:49.716Z,19.30
2023-02-11T07:21:19.661Z,18.70
2023-02-11T07:23:48.389Z,19.63
2023-02-11T07:26:19.738Z,19.37
2023-02-11T07:28:47.679Z,19.37
2023-02-11T07:31:18.473Z,19.70
2023-02-11T07:33:46.659Z,19.77
2023-02-11T07:36:16.219Z,18.80
2023-02-11T07:38:44.825Z,18.77
2023-02-11T07:41:14.585Z,19.07
2023-02-11T07:43:44.446Z,19.27
2023-02-11T07:46:14.327Z,19.30
2023-02-11T07:48:42.196Z,18.50
2023-02-11T07:51:11.554Z,19.90
2023-02-11T07:53:39.724Z,20.17
2023-02-11T07:56:08.639Z,20.83
2023-02-11T07:58:37.133Z,20.10
2023-02-11T08:01:07.650Z,19.60
2023-02-11T08:03:36.186Z,20.13
2023-02-11T08:06:05.035Z,19.63
2023-02-11T08:08:33.111Z,19.67
2023-02-11T08:11:06.972Z,19.17
2023-02-11T08:13:35.060Z,19.00
2023-02-11T08:16:03.168Z,18.27
2023-02-11T08:18:33.174Z,18.90
2023-02-11T08:21:06.096Z,18.00
2023-02-11T08:23:33.950Z,18.63
2023-02-11T08:26:03.014Z,18.83
2023-02-11T08:28:31.015Z,18.20
2023-02-11T08:30:59.114Z,19.43
2023-02-11T08:33:26.959Z,19.83
2023-02-11T08:35:56.119Z,19.00
2023-02-11T08:38:24.027Z,20.33
2023-02-11T08:40:52.131Z,25.40
2023-02-11T08:43:20.155Z,25.70
2023-02-11T08:45:48.408Z,28.10
2023-02-11T08:48:16.414Z,24.10
2023-02-11T08:50:44.260Z,24.77
2023-02-11T08:53:13.550Z,21.03
2023-02-11T08:55:41.410Z,19.87
2023-02-11T08:58:09.326Z,17.97
2023-02-11T09:00:37.224Z,19.70
2023-02-11T09:03:05.206Z,18.13
2023-02-11T09:05:33.122Z,17.53
2023-02-11T09:08:00.931Z,18.73
2023-02-11T09:10:30.115Z,18.27
2023-02-11T09:12:58.388Z,18.47
2023-02-11T09:15:26.279Z,18.23
2023-02-11T09:17:54.103Z,18.57
2023-02-11T09:20:22.161Z,17.97
2023-02-11T09:22:49.962Z,24.33
2023-02-11T09:25:17.986Z,20.33
2023-02-11T09:27:47.175Z,20.07
2023-02-11T09:30:15.118Z,20.20
2023-02-11T09:32:42.934Z,19.53
2023-02-11T09:35:10.814Z,19.80
2023-02-11T09:37:38.657Z,19.03
2023-02-11T09:40:07.565Z,18.13
2023-02-11T09:42:44.870Z,20.63
2023-02-11T09:45:19.281Z,18.70
2023-02-11T09:47:51.389Z,18.20
2023-02-11T09:50:24.956Z,18.87
2023-02-11T09:52:57.587Z,18.17
2023-02-11T09:55:29.673Z,18.70
2023-02-11T09:57:58.950Z,19.33
2023-02-11T10:00:34.253Z,19.03
2023-02-11T10:03:23.052Z,19.70
2023-02-11T10:06:11.533Z,18.70
2023-02-11T10:08:45.721Z,17.07
2023-02-11T10:11:31.248Z,22.97
2023-02-11T10:14:08.935Z,18.47
2023-02-11T10:16:49.304Z,16.67
2023-02-11T10:19:40.849Z,16.80
2023-02-11T10:22:15.775Z,15.20
2023-02-11T10:24:51.379Z,15.63
2023-02-11T10:27:21.819Z,16.77
2023-02-11T10:29:54.328Z,16.23
2023-02-11T10:32:31.875Z,15.73
2023-02-11T10:35:04.059Z,16.00
2023-02-11T10:37:34.885Z,15.73
2023-02-11T10:40:02.796Z,15.47
2023-02-11T10:42:31.421Z,16.53
2023-02-11T10:45:03.353Z,15.20
2023-02-11T10:47:37.983Z,15.90
2023-02-11T10:50:20.857Z,17.03
2023-02-11T10:52:48.997Z,15.77
2023-02-11T10:55:18.200Z,15.67
2023-02-11T10:57:53.917Z,14.90
2023-02-11T11:00:32.364Z,16.33
2023-02-11T11:03:02.924Z,15.73
2023-02-11T11:05:33.694Z,15.97
2023-02-11T11:08:05.028Z,14.93
2023-02-11T11:10:43.228Z,15.33
2023-02-11T11:13:29.325Z,15.60
2023-02-11T11:16:18.086Z,16.03
2023-02-11T11:18:49.493Z,17.83
2023-02-11T11:21:21.237Z,16.20
2023-02-11T11:23:52.560Z,15.80
2023-02-11T11:26:21.235Z,15.70
2023-02-11T11:28:58.651Z,15.40
2023-02-11T11:31:31.753Z,14.77
2023-02-11T11:34:04.084Z,15.20
2023-02-11T11:36:40.182Z,14.70
2023-02-11T11:39:20.890Z,14.90
2023-02-11T11:41:54.311Z,15.43
2023-02-11T11:44:29.479Z,14.47
2023-02-11T11:47:21.464Z,14.07
2023-02-11T11:50:03.829Z,14.53
2023-02-11T11:52:40.612Z,12.83
2023-02-11T11:55:15.331Z,11.43
2023-02-11T11:57:43.284Z,12.40
2023-02-11T12:00:17.712Z,11.87
2023-02-11T12:03:25.435Z,12.47
2023-02-11T12:06:05.252Z,12.50
2023-02-11T12:08:42.326Z,11.60
2023-02-11T12:11:18.893Z,12.03
2023-02-11T12:14:11.984Z,11.80
2023-02-11T12:16:52.925Z,10.97
2023-02-11T12:19:45.622Z,10.40
2023-02-11T12:22:24.084Z,10.43
2023-02-11T12:25:08.993Z,11.47
2023-02-11T12:27:46.174Z,12.70
2023-02-11T12:30:28.249Z,10.33
2023-02-11T12:33:07.572Z,9.70
2023-02-11T12:35:45.058Z,9.80
2023-02-11T12:38:50.702Z,9.80
2023-02-11T12:41:51.282Z,9.70
2023-02-11T12:44:30.194Z,8.70
2023-02-11T12:47:03.334Z,8.53
2023-02-11T12:49:56.004Z,9.27
2023-02-11T12:52:44.953Z,7.70
2023-02-11T12:55:20.934Z,8.93
2023-02-11T12:57:51.417Z,8.50
2023-02-11T13:00:23.168Z,9.20
2023-02-11T13:02:56.674Z,7.90
2023-02-11T13:05:28.572Z,8.83
2023-02-11T13:08:04.857Z,8.43
2023-02-11T13:10:37.040Z,8.10
2023-02-11T13:13:17.173Z,7.63
2023-02-11T13:15:47.815Z,8.07
2023-02-11T13:18:25.687Z,8.73
2023-02-11T13:20:59.709Z,7.87
2023-02-11T13:23:35.953Z,7.93
2023-02-11T13:26:14.026Z,7.93
2023-02-11T13:28:49.758Z,8.27
2023-02-11T13:31:20.246Z,8.57
2023-02-11T13:33:49.787Z,9.03
2023-02-11T13:36:23.949Z,9.60
2023-02-11T13:38:59.742Z,7.63
2023-02-11T13:41:35.152Z,8.47
2023-02-11T13:44:22.275Z,8.30
2023-02-11T13:46:55.918Z,9.27
2023-02-11T13:49:26.582Z,7.22
2023-02-11T13:51:55.484Z,9.20
2023-02-11T13:54:36.507Z,9.52
2023-02-11T13:57:27.861Z,9.77
2023-02-11T13:59:56.623Z,12.03
2023-02-11T14:02:50.078Z,9.95
2023-02-11T14:05:46.151Z,9.88
2023-02-11T14:08:49.296Z,10.17
2023-02-11T14:11:46.435Z,9.90
2023-02-11T14:14:23.743Z,11.23
2023-02-11T14:17:32.083Z,8.50
2023-02-11T14:20:02.058Z,8.68
2023-02-11T14:22:32.554Z,11.85
2023-02-11T14:25:02.388Z,8.68
2023-02-11T14:27:37.579Z,9.07
2023-02-11T14:30:30.693Z,8.25
2023-02-11T14:33:18.942Z,8.85
2023-02-11T14:36:00.023Z,8.00
2023-02-11T14:38:37.316Z,8.55
2023-02-11T14:41:11.143Z,8.77
2023-02-11T14:43:43.413Z,8.50
2023-02-11T14:46:12.963Z,9.50
2023-02-11T14:48:46.502Z,8.40
2023-02-11T14:51:20.927Z,9.40
2023-02-11T14:53:51.739Z,7.97
2023-02-11T14:56:26.264Z,8.63
2023-02-11T14:58:56.171Z,7.90
2023-02-11T15:01:30.084Z,9.80
2023-02-11T15:04:00.545Z,11.57
2023-02-11T15:06:32.808Z,10.30
2023-02-11T15:09:05.696Z,8.73
2023-02-11T15:11:39.291Z,9.43
2023-02-11T15:14:11.362Z,9.90
2023-02-11T15:16:45.428Z,9.10
2023-02-11T15:19:22.707Z,9.95
2023-02-11T15:21:51.732Z,10.30
2023-02-11T15:24:26.756Z,8.80
2023-02-11T15:26:58.620Z,8.10
2023-02-11T15:29:27.112Z,8.30
2023-02-11T15:32:13.302Z,7.95
2023-02-11T15:34:41.263Z,7.15
2023-02-11T15:37:12.125Z,6.80
2023-02-11T15:39:42.157Z,6.78
2023-02-11T15:42:21.988Z,6.90
2023-02-11T15:44:56.594Z,11.65
2023-02-11T15:47:26.311Z,10.47
2023-02-11T15:49:54.208Z,9.25
2023-02-11T15:52:30.503Z,7.45
2023-02-11T15:55:01.598Z,7.90
2023-02-11T15:57:30.589Z,7.68
2023-02-11T16:00:04.258Z,8.05
2023-02-11T16:02:45.095Z,8.40
2023-02-11T16:05:28.425Z,8.07
2023-02-11T16:07:57.800Z,8.90
2023-02-11T16:10:28.770Z,9.00
2023-02-11T16:13:03.627Z,9.00
2023-02-11T16:15:47.472Z,8.98
2023-02-11T16:18:38.742Z,8.98
2023-02-11T16:23:55.847Z,8.85
2023-02-11T16:26:28.106Z,12.83
2023-02-11T16:29:05.502Z,9.82
2023-02-11T16:31:35.183Z,9.60
2023-02-11T16:34:03.068Z,10.47
2023-02-11T16:36:31.050Z,11.57
2023-02-11T16:39:00.255Z,12.60
2023-02-11T16:41:28.153Z,12.05
2023-02-11T16:43:58.256Z,11.98
2023-02-11T16:46:27.416Z,10.70
2023-02-11T16:48:56.208Z,10.60
2023-02-11T16:51:24.062Z,9.55
2023-02-11T16:53:52.066Z,8.70
2023-02-11T16:56:21.470Z,10.40
2023-02-11T16:58:50.305Z,9.35
2023-02-11T17:01:18.194Z,9.07
2023-02-11T17:03:46.204Z,10.15
2023-02-11T17:06:16.227Z,8.35
2023-02-11T17:08:53.292Z,9.43
2023-02-11T17:11:22.846Z,7.70
2023-02-11T17:13:50.720Z,7.90
2023-02-11T17:16:22.537Z,8.82
2023-02-11T17:18:52.621Z,7.90
2023-02-11T17:21:20.480Z,9.30
2023-02-11T17:23:48.361Z,9.52
2023-02-11T17:26:18.469Z,8.13
2023-02-11T17:28:48.506Z,7.28
2023-02-11T17:31:16.492Z,7.20
2023-02-11T17:33:44.554Z,6.47
2023-02-11T17:36:15.533Z,6.88
2023-02-11T17:38:44.747Z,7.47
2023-02-11T17:41:12.920Z,8.93
2023-02-11T17:43:42.620Z,17.93
2023-02-11T17:46:13.011Z,15.27
2023-02-11T17:48:41.166Z,12.52
2023-02-11T17:51:23.084Z,11.30
2023-02-11T17:53:51.035Z,11.82
2023-02-11T17:56:18.957Z,11.05
2023-02-11T17:58:47.127Z,11.07
2023-02-11T18:01:16.412Z,8.77
2023-02-11T18:03:44.403Z,9.40
2023-02-11T18:06:13.140Z,9.48
2023-02-11T18:08:41.753Z,7.70
2023-02-11T18:11:11.150Z,8.23
2023-02-11T18:13:39.008Z,8.87
2023-02-11T18:16:08.438Z,9.57
2023-02-11T18:18:37.647Z,9.02
2023-02-11T18:21:08.398Z,25.00
2023-02-11T18:23:36.829Z,14.77
2023-02-11T18:26:08.020Z,9.80
2023-02-11T18:28:36.198Z,7.80
2023-02-11T18:31:04.762Z,7.47
2023-02-11T18:33:33.079Z,9.27
2023-02-11T18:36:06.249Z,9.30
2023-02-11T18:38:34.154Z,9.32
2023-02-11T18:41:02.042Z,9.98
2023-02-11T18:43:31.578Z,11.10
2023-02-11T18:45:59.501Z,11.07
2023-02-11T18:48:28.211Z,10.50
2023-02-11T18:50:56.815Z,10.10
2023-02-11T18:53:26.240Z,12.30
2023-02-11T18:55:54.821Z,11.47
2023-02-11T18:58:22.981Z,11.73
2023-02-11T19:00:51.848Z,11.68
2023-02-11T19:03:19.833Z,12.70
2023-02-11T19:05:50.130Z,14.67
2023-02-11T19:08:18.397Z,11.32
2023-02-11T19:10:49.459Z,10.83
2023-02-11T19:13:17.314Z,9.57
2023-02-11T19:15:46.503Z,11.10
2023-02-11T19:18:15.598Z,12.03
2023-02-11T19:20:44.766Z,16.07
2023-02-11T19:23:13.708Z,14.68
2023-02-11T19:25:48.427Z,13.70
2023-02-11T19:28:16.752Z,14.43
2023-02-11T19:30:44.684Z,15.23
2023-02-11T19:33:12.600Z,14.60
2023-02-11T19:35:40.424Z,18.77
2023-02-11T19:38:08.286Z,20.13
2023-02-11T19:40:36.312Z,18.17
2023-02-11T19:43:05.546Z,17.57
2023-02-11T19:45:33.476Z,19.03
2023-02-11T19:48:01.341Z,21.27
2023-02-11T19:50:29.197Z,19.23
2023-02-11T19:52:57.468Z,15.63
2023-02-11T19:55:25.519Z,15.10
2023-02-11T19:57:53.418Z,15.83
2023-02-11T20:00:24.990Z,15.80
2023-02-11T20:02:53.025Z,15.53
2023-02-11T20:05:21.278Z,15.70
2023-02-11T20:07:49.088Z,14.30
2023-02-11T20:10:17.864Z,14.57
2023-02-11T20:12:45.961Z,15.43
2023-02-11T20:15:13.971Z,17.53
2023-02-11T20:17:44.852Z,16.50
2023-02-11T20:20:13.280Z,14.77
2023-02-11T20:22:41.361Z,14.43
2023-02-11T20:25:10.952Z,13.07
2023-02-11T20:27:39.374Z,13.82
2023-02-11T20:30:08.846Z,13.27
2023-02-11T20:32:38.496Z,13.73
2023-02-11T20:35:10.038Z,16.38
2023-02-11T20:37:41.716Z,13.35
2023-02-11T20:40:12.596Z,12.50
2023-02-11T20:42:40.810Z,13.02
2023-02-11T20:45:13.989Z,12.77
2023-02-11T20:47:42.570Z,13.13
2023-02-11T20:50:12.976Z,13.47
2023-02-11T20:52:41.159Z,12.97
2023-02-11T20:55:10.972Z,12.47
2023-02-11T20:57:41.523Z,12.45
2023-02-11T21:00:13.111Z,12.63
2023-02-11T21:02:42.606Z,12.35
2023-02-11T21:05:14.781Z,11.80
2023-02-11T21:07:42.782Z,11.73
2023-02-11T21:10:12.828Z,11.80
2023-02-11T21:12:40.938Z,11.97
2023-02-11T21:15:09.831Z,11.53
2023-02-11T21:17:40.152Z,12.57
2023-02-11T21:20:10.057Z,13.00
2023-02-11T21:22:39.451Z,12.70
2023-02-11T21:25:09.962Z,13.03
2023-02-11T21:27:38.552Z,13.43
2023-02-11T21:30:11.909Z,12.60
2023-02-11T21:32:40.142Z,13.37
2023-02-11T21:35:09.003Z,12.80
2023-02-11T21:37:36.979Z,13.03
2023-02-11T21:40:07.930Z,13.23
2023-02-11T21:42:36.916Z,13.33
2023-02-11T21:45:05.652Z,13.70
2023-02-11T21:47:34.175Z,13.10
2023-02-11T21:50:02.599Z,13.93
2023-02-11T21:52:30.731Z,13.47
2023-02-11T21:55:02.527Z,13.97
2023-02-11T21:57:32.189Z,14.97
2023-02-11T22:00:00.420Z,16.33
2023-02-11T22:02:29.444Z,16.33
2023-02-11T22:04:57.697Z,16.03
2023-02-11T22:07:27.982Z,15.47
2023-02-11T22:10:07.902Z,16.33
2023-02-11T22:12:39.525Z,13.40
2023-02-11T22:15:08.445Z,13.63
2023-02-11T22:17:36.645Z,13.83
2023-02-11T22:20:05.879Z,13.63
2023-02-11T22:22:33.832Z,14.10
2023-02-11T22:25:02.092Z,13.10
2023-02-11T22:27:32.133Z,13.60
2023-02-11T22:30:02.564Z,14.03
2023-02-11T22:32:30.468Z,14.70
2023-02-11T22:34:58.323Z,14.23
2023-02-11T22:37:26.180Z,13.00
2023-02-11T22:39:54.058Z,12.60
2023-02-11T22:42:21.972Z,13.27
2023-02-11T22:44:49.784Z,12.63
2023-02-11T22:47:18.963Z,15.03
2023-02-11T22:49:46.797Z,13.60
2023-02-11T22:52:14.700Z,13.90
2023-02-11T22:54:42.651Z,13.73
2023-02-11T22:57:10.661Z,12.97
2023-02-11T22:59:38.693Z,13.60
